createdAt,value
2019-01-10T00:00:01.471Z,97.62
2019-01-10T00:02:27.641Z,97.72
2019-01-10T00:04:53.490Z,98.12
2019-01-10T00:07:19.346Z,98.70
2019-01-10T00:09:45.205Z,98.81
2019-01-10T00:12:11.300Z,98.78
2019-01-10T00:14:39.917Z,98.85
2019-01-10T00:17:05.741Z,98.64
2019-01-10T00:19:34.378Z,98.21
2019-01-10T00:22:00.262Z,97.98
2019-01-10T00:24:28.865Z,97.51
2019-01-10T00:26:54.991Z,98.18
2019-01-10T00:29:24.274Z,98.31
2019-01-10T00:31:50.226Z,98.43
2019-01-10T00:34:16.337Z,98.56
2019-01-10T00:36:42.474Z,98.58
2019-01-10T00:39:08.352Z,98.42
2019-01-10T00:41:37.572Z,98.29
2019-01-10T00:44:03.405Z,98.61
2019-01-10T00:46:32.240Z,98.60
2019-01-10T00:48:58.407Z,98.64
2019-01-10T00:51:24.756Z,98.64
2019-01-10T00:53:50.858Z,99.42
2019-01-10T00:56:19.777Z,99.50
2019-01-10T00:58:45.599Z,99.50
2019-01-10T01:01:14.408Z,99.17
2019-01-10T01:03:40.513Z,99.86
2019-01-10T01:06:09.634Z,99.67
2019-01-10T01:08:35.497Z,99.77
2019-01-10T01:11:01.359Z,99.59
2019-01-10T01:13:27.456Z,99.24
2019-01-10T01:15:53.596Z,99.23
2019-01-10T01:18:22.411Z,99.45
2019-01-10T01:20:48.674Z,99.62
2019-01-10T01:23:17.430Z,99.82
2019-01-10T01:25:43.537Z,99.91
2019-01-10T01:28:09.482Z,99.77
2019-01-10T01:30:35.325Z,99.64
2019-01-10T01:33:04.189Z,99.64
2019-01-10T01:35:30.326Z,99.94
2019-01-10T01:37:58.904Z,100.00
2019-01-10T01:40:24.779Z,100.00
2019-01-10T01:42:55.198Z,100.00
2019-01-10T01:45:21.226Z,100.00
2019-01-10T01:47:47.277Z,100.00
2019-01-10T01:50:15.594Z,99.82
2019-01-10T01:52:41.520Z,98.98
2019-01-10T01:55:08.053Z,98.98
2019-01-10T01:57:33.984Z,98.91
2019-01-10T02:00:06.931Z,98.54
2019-01-10T02:02:33.058Z,98.76
2019-01-10T02:04:58.868Z,98.98
2019-01-10T02:07:25.017Z,99.05
2019-01-10T02:09:50.867Z,98.85
2019-01-10T02:12:25.585Z,99.08
2019-01-10T02:14:51.667Z,99.28
2019-01-10T02:17:17.529Z,99.15
2019-01-10T02:19:43.659Z,99.12
2019-01-10T02:22:09.608Z,98.98
2019-01-10T02:24:35.627Z,98.98
2019-01-10T02:27:01.578Z,98.69
2019-01-10T02:29:27.443Z,98.66
2019-01-10T02:31:53.249Z,98.35
2019-01-10T02:34:19.356Z,98.47
2019-01-10T02:36:48.273Z,98.54
2019-01-10T02:39:14.156Z,98.72
2019-01-10T02:41:40.092Z,99.32
2019-01-10T02:44:05.936Z,99.70
2019-01-10T02:46:34.767Z,99.59
2019-01-10T02:49:00.615Z,99.60
2019-01-10T02:51:31.303Z,99.17
2019-01-10T02:53:57.166Z,99.10
2019-01-10T02:56:26.234Z,99.63
2019-01-10T03:01:27.210Z,99.57
2019-01-10T03:03:53.246Z,99.41
2019-01-10T03:06:19.075Z,99.57
2019-01-10T03:08:44.916Z,99.84
2019-01-10T03:11:10.798Z,99.92
2019-01-10T03:13:37.138Z,99.95
2019-01-10T03:16:03.099Z,99.87
2019-01-10T03:18:29.235Z,99.37
2019-01-10T03:20:55.099Z,99.39
2019-01-10T03:23:20.941Z,99.59
2019-01-10T03:25:46.786Z,99.35
2019-01-10T03:28:15.727Z,99.37
2019-01-10T03:30:41.677Z,99.53
2019-01-10T03:33:09.742Z,99.75
2019-01-10T03:35:35.545Z,99.87
2019-01-10T03:38:01.717Z,99.93
2019-01-10T03:40:27.809Z,100.00
2019-01-10T03:42:53.948Z,100.00
2019-01-10T03:45:23.104Z,100.00
2019-01-10T03:47:48.925Z,100.00
2019-01-10T03:50:18.039Z,100.00
2019-01-10T03:52:43.960Z,100.00
2019-01-10T03:55:13.173Z,100.00
2019-01-10T03:57:39.146Z,99.90
2019-01-10T04:00:09.607Z,99.90
2019-01-10T04:02:35.730Z,100.00
2019-01-10T04:05:01.757Z,100.00
2019-01-10T04:07:27.611Z,100.00
2019-01-10T04:09:56.764Z,100.00
2019-01-10T04:12:22.626Z,100.00
2019-01-10T04:14:48.586Z,100.00
2019-01-10T04:17:14.428Z,99.87
2019-01-10T04:19:40.236Z,100.00
2019-01-10T04:22:09.121Z,100.00
2019-01-10T04:24:35.002Z,100.00
2019-01-10T04:27:03.584Z,100.00
2019-01-10T04:29:29.400Z,100.00
2019-01-10T04:31:58.044Z,100.00
2019-01-10T04:34:23.848Z,100.00
2019-01-10T04:36:51.171Z,100.00
2019-01-10T04:39:17.026Z,100.00
2019-01-10T04:41:46.312Z,100.00
2019-01-10T04:44:12.159Z,100.00
2019-01-10T04:46:40.952Z,99.71
2019-01-10T04:49:06.997Z,100.00
2019-01-10T04:51:33.080Z,99.78
2019-01-10T04:53:59.212Z,99.85
2019-01-10T04:56:25.057Z,99.95
2019-01-10T04:58:52.091Z,100.00
2019-01-10T05:01:17.926Z,100.00
2019-01-10T05:03:46.951Z,99.96
2019-01-10T05:06:12.794Z,100.00
2019-01-10T05:08:41.628Z,100.00
2019-01-10T05:11:07.726Z,100.00
2019-01-10T05:13:36.440Z,99.95
2019-01-10T05:16:02.380Z,99.84
2019-01-10T05:18:31.827Z,99.54
2019-01-10T05:20:57.957Z,99.62
2019-01-10T05:23:26.901Z,99.76
2019-01-10T05:25:52.765Z,99.84
2019-01-10T05:28:18.583Z,99.84
2019-01-10T05:30:44.838Z,99.93
2019-01-10T05:33:10.964Z,99.50
2019-01-10T05:35:40.204Z,99.33
2019-01-10T05:38:06.038Z,99.49
2019-01-10T05:40:32.195Z,99.83
2019-01-10T05:42:58.010Z,100.00
2019-01-10T05:45:26.902Z,100.00
2019-01-10T05:47:52.727Z,100.00
2019-01-10T05:50:21.341Z,100.00
2019-01-10T05:52:47.453Z,100.00
2019-01-10T05:55:18.210Z,100.00
2019-01-10T05:57:44.030Z,100.00
2019-01-10T06:00:21.763Z,100.00
2019-01-10T06:02:47.616Z,100.00
2019-01-10T06:05:13.536Z,100.00
2019-01-10T06:07:39.388Z,100.00
2019-01-10T06:10:12.049Z,100.00
2019-01-10T06:12:38.171Z,100.00
2019-01-10T06:15:07.859Z,100.00
2019-01-10T06:17:34.086Z,100.00
2019-01-10T06:19:59.932Z,99.83
2019-01-10T06:22:26.063Z,100.00
2019-01-10T06:24:52.178Z,100.00
2019-01-10T06:27:18.334Z,100.00
2019-01-10T06:29:44.168Z,100.00
2019-01-10T06:32:09.988Z,100.00
2019-01-10T06:34:36.134Z,99.89
2019-01-10T06:37:02.271Z,100.00
2019-01-10T06:39:28.106Z,100.00
2019-01-10T06:41:54.280Z,100.00
2019-01-10T06:44:21.559Z,100.00
2019-01-10T06:46:47.460Z,99.87
2019-01-10T06:49:13.289Z,99.96
2019-01-10T06:51:39.367Z,99.90
2019-01-10T06:54:05.518Z,99.84
2019-01-10T06:56:31.341Z,100.00
2019-01-10T06:58:57.227Z,100.00
2019-01-10T07:01:23.148Z,99.42
2019-01-10T07:03:52.006Z,99.28
2019-01-10T07:06:17.904Z,99.50
2019-01-10T07:08:46.784Z,99.33
2019-01-10T07:11:12.630Z,99.37
2019-01-10T07:13:43.463Z,99.65
2019-01-10T07:16:09.318Z,99.63
2019-01-10T07:18:35.123Z,99.52
2019-01-10T07:21:01.243Z,99.26
2019-01-10T07:23:27.328Z,99.00
2019-01-10T07:25:53.669Z,98.80
2019-01-10T07:28:23.192Z,98.85
2019-01-10T07:30:49.050Z,98.72
2019-01-10T07:33:15.178Z,98.72
2019-01-10T07:35:50.073Z,98.79
2019-01-10T07:38:16.161Z,98.79
2019-01-10T07:40:42.075Z,98.80
2019-01-10T07:43:08.245Z,98.89
2019-01-10T07:45:34.347Z,98.65
2019-01-10T07:48:00.487Z,98.89
2019-01-10T07:50:49.404Z,98.82
2019-01-10T07:53:15.247Z,98.58
2019-01-10T07:55:41.151Z,98.61
2019-01-10T07:58:07.098Z,98.34
2019-01-10T08:00:33.315Z,97.88
2019-01-10T08:02:59.649Z,97.88
2019-01-10T08:05:25.517Z,98.35
2019-01-10T08:07:51.732Z,98.07
2019-01-10T08:10:17.837Z,98.14
2019-01-10T08:12:43.807Z,98.85
2019-01-10T08:15:15.839Z,98.98
2019-01-10T08:17:41.708Z,99.09
2019-01-10T08:20:07.928Z,99.14
2019-01-10T08:22:33.773Z,99.11
2019-01-10T08:24:59.604Z,98.75
2019-01-10T08:27:25.819Z,98.74
2019-01-10T08:29:51.676Z,99.03
2019-01-10T08:32:17.754Z,99.31
2019-01-10T08:34:43.610Z,99.44
2019-01-10T08:37:09.454Z,99.41
2019-01-10T08:39:35.381Z,99.07
2019-01-10T08:42:01.180Z,99.26
2019-01-10T08:44:27.111Z,99.07
2019-01-10T08:46:53.293Z,99.32
2019-01-10T08:49:19.385Z,99.03
2019-01-10T08:51:45.253Z,98.93
2019-01-10T08:54:11.362Z,98.93
2019-01-10T08:56:37.459Z,98.81
2019-01-10T08:59:03.427Z,98.42
2019-01-10T09:01:29.569Z,98.32
2019-01-10T09:03:58.607Z,98.51
2019-01-10T09:06:24.701Z,98.11
2019-01-10T09:08:50.547Z,98.01
2019-01-10T09:11:16.390Z,97.76
2019-01-10T09:13:42.461Z,97.96
2019-01-10T09:16:11.494Z,97.71
2019-01-10T09:18:37.354Z,97.05
2019-01-10T09:21:04.815Z,96.78
2019-01-10T09:23:30.718Z,97.32
2019-01-10T09:25:59.301Z,97.22
2019-01-10T09:28:25.392Z,97.85
2019-01-10T09:30:53.154Z,98.30
2019-01-10T09:33:18.982Z,98.12
2019-01-10T09:35:47.832Z,98.02
2019-01-10T09:38:13.670Z,97.57
2019-01-10T09:40:43.148Z,97.02
2019-01-10T09:43:09.041Z,96.61
2019-01-10T09:45:42.777Z,96.18
2019-01-10T09:48:03.263Z,96.09
2019-01-10T09:50:29.404Z,95.54
2019-01-10T09:52:55.235Z,94.93
2019-01-10T09:55:21.224Z,95.52
2019-01-10T09:57:49.818Z,95.47
2019-01-10T10:00:18.689Z,95.59
2019-01-10T10:02:44.518Z,95.35
2019-01-10T10:05:10.661Z,95.42
2019-01-10T10:07:39.339Z,95.22
2019-01-10T10:10:08.887Z,95.11
2019-01-10T10:12:35.666Z,95.19
2019-01-10T10:15:02.282Z,95.75
2019-01-10T10:17:28.088Z,95.70
2019-01-10T10:19:53.938Z,95.55
2019-01-10T10:22:19.745Z,95.41
2019-01-10T10:24:45.834Z,95.40
2019-01-10T10:27:11.929Z,95.54
2019-01-10T10:29:41.103Z,95.93
2019-01-10T10:32:07.238Z,96.13
2019-01-10T10:34:35.898Z,96.31
2019-01-10T10:37:02.117Z,96.22
2019-01-10T10:39:29.598Z,96.44
2019-01-10T10:41:55.442Z,96.25
2019-01-10T10:44:23.903Z,96.26
2019-01-10T10:46:49.771Z,95.99
2019-01-10T10:49:19.129Z,96.31
2019-01-10T10:51:44.984Z,96.33
2019-01-10T10:54:15.778Z,96.62
2019-01-10T10:56:41.735Z,96.34
2019-01-10T10:59:07.645Z,96.36
2019-01-10T11:01:33.779Z,96.77
2019-01-10T11:03:59.956Z,96.69
2019-01-10T11:06:26.055Z,96.15
2019-01-10T11:08:51.901Z,95.90
2019-01-10T11:11:20.605Z,95.03
2019-01-10T11:13:46.567Z,95.03
2019-01-10T11:16:15.788Z,94.60
2019-01-10T11:18:41.651Z,94.15
2019-01-10T11:21:09.502Z,94.09
2019-01-10T11:23:35.338Z,93.72
2019-01-10T11:26:04.205Z,93.72
2019-01-10T11:28:30.023Z,93.68
2019-01-10T11:31:00.892Z,93.22
2019-01-10T11:33:26.699Z,92.90
2019-01-10T11:35:52.547Z,92.58
2019-01-10T11:38:18.350Z,92.39
2019-01-10T11:40:44.456Z,92.31
2019-01-10T11:43:10.272Z,92.11
2019-01-10T11:45:36.130Z,92.18
2019-01-10T11:48:07.734Z,91.81
2019-01-10T11:50:33.570Z,91.91
2019-01-10T11:53:02.926Z,91.60
2019-01-10T11:55:28.764Z,91.66
2019-01-10T11:57:54.847Z,91.53
2019-01-10T12:00:23.410Z,91.71
2019-01-10T12:02:49.317Z,91.75
2019-01-10T12:05:15.232Z,92.29
2019-01-10T12:07:44.377Z,92.22
2019-01-10T12:10:10.499Z,92.15
2019-01-10T12:12:36.454Z,91.82
2019-01-10T12:15:04.267Z,91.00
2019-01-10T12:17:31.209Z,91.40
2019-01-10T12:19:57.140Z,91.76
2019-01-10T12:22:23.097Z,91.81
2019-01-10T12:24:52.176Z,91.68
2019-01-10T12:27:18.323Z,91.25
2019-01-10T12:29:46.932Z,91.18
2019-01-10T12:32:13.088Z,91.51
2019-01-10T12:34:42.041Z,91.02
2019-01-10T12:37:07.977Z,91.24
2019-01-10T12:39:36.693Z,91.63
2019-01-10T12:42:02.647Z,91.90
2019-01-10T12:44:29.350Z,91.38
2019-01-10T12:46:55.163Z,91.03
2019-01-10T12:49:21.305Z,91.27
2019-01-10T12:51:47.127Z,92.30
2019-01-10T12:54:13.267Z,92.41
2019-01-10T12:56:40.908Z,91.98
2019-01-10T12:59:06.719Z,92.29
2019-01-10T13:01:35.437Z,92.16
2019-01-10T13:04:01.630Z,91.88
2019-01-10T13:06:30.549Z,91.44
2019-01-10T13:08:56.364Z,91.47
2019-01-10T13:11:25.546Z,91.56
2019-01-10T13:13:52.574Z,91.47
2019-01-10T13:16:21.186Z,91.42
2019-01-10T13:18:47.042Z,91.46
2019-01-10T13:21:15.520Z,91.33
2019-01-10T13:23:41.443Z,91.75
2019-01-10T13:26:07.649Z,91.81
2019-01-10T13:28:33.741Z,92.08
2019-01-10T13:30:59.834Z,91.42
2019-01-10T13:33:28.928Z,91.38
2019-01-10T13:35:55.045Z,91.53
2019-01-10T13:38:20.861Z,92.23
2019-01-10T13:40:46.813Z,92.23
2019-01-10T13:43:15.896Z,92.19
2019-01-10T13:45:46.394Z,92.43
2019-01-10T13:48:13.075Z,91.86
2019-01-10T13:50:38.980Z,92.31
2019-01-10T13:53:08.310Z,91.94
2019-01-10T13:55:34.124Z,91.99
2019-01-10T13:58:00.322Z,91.97
2019-01-10T14:00:48.850Z,92.36
2019-01-10T14:03:14.870Z,92.43
2019-01-10T14:05:40.959Z,92.59
2019-01-10T14:08:06.774Z,92.78
2019-01-10T14:10:32.913Z,93.23
2019-01-10T14:12:58.779Z,93.99
2019-01-10T14:15:26.760Z,94.26
2019-01-10T14:17:52.706Z,94.04
2019-01-10T14:20:18.637Z,93.21
2019-01-10T14:22:44.730Z,93.15
2019-01-10T14:25:10.689Z,93.35
2019-01-10T14:27:36.776Z,93.78
2019-01-10T14:30:09.244Z,93.52
2019-01-10T14:32:35.354Z,93.73
2019-01-10T14:35:01.224Z,93.88
2019-01-10T14:37:27.057Z,93.59
2019-01-10T14:39:52.878Z,93.57
2019-01-10T14:42:18.807Z,93.66
2019-01-10T14:44:44.657Z,93.42
2019-01-10T14:47:10.463Z,93.33
2019-01-10T14:49:36.413Z,93.86
2019-01-10T14:52:02.636Z,93.86
2019-01-10T14:54:28.468Z,93.76
2019-01-10T14:56:57.953Z,93.46
2019-01-10T14:59:22.106Z,93.40
2019-01-10T15:01:47.957Z,93.58
2019-01-10T15:04:14.034Z,93.66
2019-01-10T15:06:40.145Z,94.18
2019-01-10T15:09:06.313Z,93.83
2019-01-10T15:11:32.125Z,94.02
2019-01-10T15:13:57.959Z,93.77
2019-01-10T15:16:23.775Z,94.19
2019-01-10T15:18:49.614Z,93.99
2019-01-10T15:21:15.671Z,93.33
2019-01-10T15:23:44.307Z,93.22
2019-01-10T15:26:10.133Z,92.88
2019-01-10T15:28:39.252Z,93.11
2019-01-10T15:31:05.431Z,93.04
2019-01-10T15:33:32.444Z,92.70
2019-01-10T15:35:58.278Z,92.51
2019-01-10T15:38:27.552Z,92.69
2019-01-10T15:40:53.396Z,92.03
2019-01-10T15:43:22.630Z,92.66
2019-01-10T15:45:48.589Z,92.84
2019-01-10T15:48:17.405Z,92.21
2019-01-10T15:50:43.228Z,92.67
2019-01-10T15:53:09.447Z,92.67
2019-01-10T15:55:35.368Z,92.51
2019-01-10T15:58:01.217Z,93.03
2019-01-10T16:00:30.336Z,92.84
2019-01-10T16:02:56.184Z,92.71
2019-01-10T16:05:22.287Z,92.77
2019-01-10T16:07:48.261Z,92.71
2019-01-10T16:10:19.083Z,93.38
2019-01-10T16:12:45.497Z,92.89
2019-01-10T16:15:14.616Z,92.39
2019-01-10T16:17:40.729Z,92.54
2019-01-10T16:20:09.172Z,92.51
2019-01-10T16:22:34.982Z,92.75
2019-01-10T16:25:07.079Z,92.40
2019-01-10T16:27:33.262Z,92.45
2019-01-10T16:29:59.108Z,92.36
2019-01-10T16:32:24.913Z,92.37
2019-01-10T16:34:50.760Z,92.46
2019-01-10T16:37:16.929Z,92.61
2019-01-10T16:39:42.793Z,92.07
2019-01-10T16:42:08.601Z,91.94
2019-01-10T16:44:34.560Z,91.96
2019-01-10T16:47:02.563Z,90.93
2019-01-10T16:49:28.659Z,90.98
2019-01-10T16:51:57.280Z,91.34
2019-01-10T16:54:23.083Z,91.81
2019-01-10T16:56:52.339Z,91.10
2019-01-10T16:59:18.189Z,90.60
2019-01-10T17:01:46.893Z,90.92
2019-01-10T17:04:12.750Z,91.25
2019-01-10T17:06:38.596Z,91.51
2019-01-10T17:09:06.115Z,91.45
2019-01-10T17:11:31.966Z,91.66
2019-01-10T17:13:57.909Z,91.98
2019-01-10T17:16:23.772Z,91.47
2019-01-10T17:18:52.972Z,91.63
2019-01-10T17:21:19.211Z,92.22
2019-01-10T17:23:48.085Z,91.54
2019-01-10T17:26:13.924Z,91.37
2019-01-10T17:28:44.935Z,91.44
2019-01-10T17:31:11.077Z,91.39
2019-01-10T17:33:37.222Z,91.27
2019-01-10T17:36:03.291Z,91.04
2019-01-10T17:38:33.963Z,90.96
2019-01-10T17:40:59.800Z,90.53
2019-01-10T17:43:25.918Z,89.94
2019-01-10T17:45:52.050Z,89.86
2019-01-10T17:48:18.835Z,90.00
2019-01-10T17:50:44.973Z,90.41
2019-01-10T17:53:10.810Z,90.50
2019-01-10T17:55:39.641Z,90.29
2019-01-10T17:58:05.478Z,90.49
2019-01-10T18:00:34.066Z,90.10
2019-01-10T18:02:59.907Z,90.56
2019-01-10T18:05:29.065Z,90.47
2019-01-10T18:07:54.920Z,90.22
2019-01-10T18:10:23.538Z,90.03
2019-01-10T18:12:49.355Z,89.86
2019-01-10T18:15:20.448Z,89.36
2019-01-10T18:17:50.272Z,89.15
2019-01-10T18:20:16.837Z,89.08
2019-01-10T18:22:42.933Z,89.37
2019-01-10T18:25:10.178Z,89.89
2019-01-10T18:27:36.281Z,90.15
2019-01-10T18:30:08.399Z,90.12
2019-01-10T18:32:34.462Z,89.98
2019-01-10T18:35:00.677Z,89.40
2019-01-10T18:37:26.534Z,90.73
2019-01-10T18:39:52.435Z,90.96
2019-01-10T18:42:18.282Z,90.93
2019-01-10T18:44:44.098Z,89.92
2019-01-10T18:47:09.920Z,89.66
2019-01-10T18:49:35.770Z,89.99
2019-01-10T18:52:04.912Z,90.08
2019-01-10T18:54:30.777Z,90.43
2019-01-10T18:56:56.917Z,90.28
2019-01-10T18:59:22.713Z,90.28
2019-01-10T19:01:48.562Z,90.12
2019-01-10T19:04:14.666Z,89.91
2019-01-10T19:06:40.481Z,89.30
2019-01-10T19:09:09.656Z,89.17
2019-01-10T19:11:35.516Z,89.16
2019-01-10T19:14:04.896Z,89.45
2019-01-10T19:16:30.730Z,89.36
2019-01-10T19:18:59.820Z,89.97
2019-01-10T19:21:26.043Z,89.73
2019-01-10T19:23:53.374Z,90.54
2019-01-10T19:26:19.215Z,89.75
2019-01-10T19:28:47.678Z,89.20
2019-01-10T19:31:13.515Z,88.65
2019-01-10T19:33:39.376Z,88.99
2019-01-10T19:36:05.674Z,88.77
2019-01-10T19:38:31.511Z,88.87
2019-01-10T19:41:00.401Z,89.14
2019-01-10T19:43:26.242Z,88.50
2019-01-10T19:45:55.445Z,87.37
2019-01-10T19:48:21.288Z,86.92
2019-01-10T19:50:50.177Z,87.43
2019-01-10T19:53:16.025Z,88.32
2019-01-10T19:55:44.842Z,88.49
2019-01-10T19:58:12.009Z,89.64
2019-01-10T20:00:41.131Z,90.48
2019-01-10T20:03:07.169Z,90.52
2019-01-10T20:05:32.997Z,89.50
2019-01-10T20:07:59.089Z,88.85
2019-01-10T20:10:24.906Z,88.59
2019-01-10T20:12:51.294Z,88.24
2019-01-10T20:15:17.233Z,87.91
2019-01-10T20:17:46.509Z,88.98
2019-01-10T20:20:19.008Z,90.27
2019-01-10T20:22:44.828Z,90.60
2019-01-10T20:25:11.067Z,90.55
2019-01-10T20:27:36.990Z,90.35
2019-01-10T20:30:09.828Z,90.11
2019-01-10T20:32:35.699Z,89.83
2019-01-10T20:35:03.762Z,90.11
2019-01-10T20:37:29.594Z,90.25
2019-01-10T20:39:58.427Z,90.45
2019-01-10T20:42:24.267Z,90.33
2019-01-10T20:44:52.841Z,89.97
2019-01-10T20:47:18.674Z,90.38
2019-01-10T20:49:47.531Z,90.73
2019-01-10T20:52:13.340Z,90.79
2019-01-10T20:54:42.524Z,91.11
2019-01-10T20:57:08.443Z,90.82
2019-01-10T20:59:37.787Z,90.82
2019-01-10T21:02:03.848Z,91.27
2019-01-10T21:04:30.321Z,91.17
2019-01-10T21:06:56.164Z,91.17
2019-01-10T21:09:25.180Z,91.07
2019-01-10T21:11:51.099Z,90.78
2019-01-10T21:14:20.241Z,90.17
2019-01-10T21:16:46.377Z,90.54
2019-01-10T21:19:15.194Z,89.87
2019-01-10T21:21:41.336Z,89.90
2019-01-10T21:24:10.197Z,90.68
2019-01-10T21:26:36.319Z,91.14
2019-01-10T21:29:02.794Z,91.17
2019-01-10T21:31:28.632Z,90.42
2019-01-10T21:33:54.760Z,90.47
2019-01-10T21:36:20.854Z,90.80
2019-01-10T21:38:46.994Z,91.24
2019-01-10T21:41:15.568Z,91.44
2019-01-10T21:43:41.711Z,91.97
2019-01-10T21:46:11.160Z,92.13
2019-01-10T21:48:37.092Z,91.21
2019-01-10T21:51:06.304Z,90.65
2019-01-10T21:53:32.557Z,91.05
2019-01-10T21:56:01.743Z,91.26
2019-01-10T21:58:27.834Z,91.22
2019-01-10T22:00:53.648Z,91.31
2019-01-10T22:03:19.500Z,91.04
2019-01-10T22:05:46.343Z,90.62
2019-01-10T22:08:12.259Z,90.57
2019-01-10T22:10:38.076Z,91.27
2019-01-10T22:13:07.241Z,91.29
2019-01-10T22:15:33.076Z,91.14
2019-01-10T22:18:02.190Z,90.85
2019-01-10T22:20:35.191Z,91.02
2019-01-10T22:23:01.037Z,91.16
2019-01-10T22:25:26.886Z,91.12
2019-01-10T22:27:52.805Z,91.47
2019-01-10T22:30:20.555Z,91.68
2019-01-10T22:32:47.390Z,91.48
2019-01-10T22:35:15.263Z,91.24
2019-01-10T22:37:41.089Z,91.34
2019-01-10T22:40:10.471Z,91.75
2019-01-10T22:42:36.364Z,92.06
2019-01-10T22:45:12.095Z,91.71
2019-01-10T22:47:37.935Z,91.12
2019-01-10T22:50:07.182Z,90.96
2019-01-10T22:52:33.134Z,91.20
2019-01-10T22:54:58.971Z,91.53
2019-01-10T22:57:25.060Z,91.55
2019-01-10T22:59:50.978Z,91.50
2019-01-10T23:02:17.049Z,92.01
2019-01-10T23:04:43.000Z,91.65
2019-01-10T23:07:13.604Z,91.56
2019-01-10T23:09:39.471Z,91.67
2019-01-10T23:12:06.191Z,91.19
2019-01-10T23:14:32.054Z,91.15
2019-01-10T23:16:58.011Z,91.19
2019-01-10T23:19:23.833Z,91.01
2019-01-10T23:21:49.645Z,90.93
2019-01-10T23:24:15.894Z,90.87
2019-01-10T23:26:46.374Z,91.00
2019-01-10T23:29:12.181Z,91.12
2019-01-10T23:31:38.362Z,91.13
2019-01-10T23:34:06.140Z,91.45
2019-01-10T23:36:32.244Z,91.72
2019-01-10T23:39:13.309Z,91.43
2019-01-10T23:41:39.421Z,91.56
2019-01-10T23:44:05.352Z,91.56
2019-01-10T23:46:31.191Z,91.25
2019-01-10T23:49:00.598Z,91.36
2019-01-10T23:51:25.136Z,92.25
2019-01-10T23:53:51.244Z,92.25
2019-01-10T23:56:17.085Z,91.68
2019-01-10T23:58:43.239Z,92.17
